sensor_id;sensor_type;location;lat;lon;timestamp;temperature;humidity
4314;DHT22;2170;48.794;9.182;2023-08-06T00:00:09;16.20;99.90
4314;DHT22;2170;48.794;9.182;2023-08-06T00:03:07;16.40;99.90
4314;DHT22;2170;48.794;9.182;2023-08-06T00:05:50;16.40;99.90
4314;DHT22;2170;48.794;9.182;2023-08-06T00:08:29;16.50;99.90
4314;DHT22;2170;48.794;9.182;2023-08-06T00:11:12;16.40;99.90
4314;DHT22;2170;48.794;9.182;2023-08-06T00:13:54;16.30;99.90
4314;DHT22;2170;48.794;9.182;2023-08-06T00:16:31;16.30;99.90
4314;DHT22;2170;48.794;9.182;2023-08-06T00:19:13;16.20;99.90
4314;DHT22;2170;48.794;9.182;2023-08-06T00:22:14;16.20;99.90
4314;DHT22;2170;48.794;9.182;2023-08-06T00:25:06;16.20;99.90
4314;DHT22;2170;48.794;9.182;2023-08-06T00:27:40;16.20;99.90
4314;DHT22;2170;48.794;9.182;2023-08-06T00:30:16;16.20;99.90
4314;DHT22;2170;48.794;9.182;2023-08-06T00:32:48;16.20;99.90
4314;DHT22;2170;48.794;9.182;2023-08-06T00:35:19;16.10;99.90
4314;DHT22;2170;48.794;9.182;2023-08-06T00:37:52;16.10;99.90
4314;DHT22;2170;48.794;9.182;2023-08-06T00:40:23;16.00;99.90
4314;DHT22;2170;48.794;9.182;2023-08-06T00:42:53;16.00;99.90
4314;DHT22;2170;48.794;9.182;2023-08-06T00:45:20;15.70;99.90
4314;DHT22;2170;48.794;9.182;2023-08-06T00:47:51;16.00;99.90
4314;DHT22;2170;48.794;9.182;2023-08-06T00:50:22;15.90;99.90
4314;DHT22;2170;48.794;9.182;2023-08-06T00:52:54;15.90;99.90
4314;DHT22;2170;48.794;9.182;2023-08-06T00:55:23;15.90;99.90
4314;DHT22;2170;48.794;9.182;2023-08-06T00:57:51;15.80;99.90
4314;DHT22;2170;48.794;9.182;2023-08-06T01:00:24;15.80;99.90
4314;DHT22;2170;48.794;9.182;2023-08-06T01:02:52;15.50;99.90
4314;DHT22;2170;48.794;9.182;2023-08-06T01:05:23;15.80;99.90
4314;DHT22;2170;48.794;9.182;2023-08-06T01:08:04;15.70;99.90
4314;DHT22;2170;48.794;9.182;2023-08-06T01:10:44;15.70;99.90
4314;DHT22;2170;48.794;9.182;2023-08-06T01:13:20;15.70;99.90
4314;DHT22;2170;48.794;9.182;2023-08-06T01:15:55;15.70;99.90
4314;DHT22;2170;48.794;9.182;2023-08-06T01:18:24;15.70;99.90
4314;DHT22;2170;48.794;9.182;2023-08-06T01:20:59;15.60;99.90
4314;DHT22;2170;48.794;9.182;2023-08-06T01:23:34;15.60;99.90
4314;DHT22;2170;48.794;9.182;2023-08-06T01:26:11;15.60;99.90
4314;DHT22;2170;48.794;9.182;2023-08-06T01:28:48;15.60;99.90
4314;DHT22;2170;48.794;9.182;2023-08-06T01:31:22;15.60;99.90
4314;DHT22;2170;48.794;9.182;2023-08-06T01:33:53;15.60;99.90
4314;DHT22;2170;48.794;9.182;2023-08-06T01:36:23;15.60;99.90
4314;DHT22;2170;48.794;9.182;2023-08-06T01:38:51;15.50;99.90
4314;DHT22;2170;48.794;9.182;2023-08-06T01:41:20;15.60;99.90
4314;DHT22;2170;48.794;9.182;2023-08-06T01:43:47;15.50;99.90
4314;DHT22;2170;48.794;9.182;2023-08-06T01:46:17;15.50;99.90
4314;DHT22;2170;48.794;9.182;2023-08-06T01:48:48;15.50;99.90
4314;DHT22;2170;48.794;9.182;2023-08-06T01:51:17;15.50;99.90
4314;DHT22;2170;48.794;9.182;2023-08-06T01:53:50;15.50;99.90
4314;DHT22;2170;48.794;9.182;2023-08-06T01:56:17;15.50;99.90
4314;DHT22;2170;48.794;9.182;2023-08-06T01:58:47;15.50;99.90
4314;DHT22;2170;48.794;9.182;2023-08-06T02:01:17;15.20;99.90
4314;DHT22;2170;48.794;9.182;2023-08-06T02:03:45;15.50;99.90
4314;DHT22;2170;48.794;9.182;2023-08-06T02:06:13;15.40;99.90
4314;DHT22;2170;48.794;9.182;2023-08-06T02:08:40;15.40;99.90
4314;DHT22;2170;48.794;9.182;2023-08-06T02:11:15;15.40;99.90
4314;DHT22;2170;48.794;9.182;2023-08-06T02:13:43;15.40;99.90
4314;DHT22;2170;48.794;9.182;2023-08-06T02:16:12;15.30;99.90
4314;DHT22;2170;48.794;9.182;2023-08-06T02:18:42;15.30;99.90
4314;DHT22;2170;48.794;9.182;2023-08-06T02:21:12;15.30;99.90
4314;DHT22;2170;48.794;9.182;2023-08-06T02:23:40;15.20;99.90
4314;DHT22;2170;48.794;9.182;2023-08-06T02:26:12;15.20;99.90
4314;DHT22;2170;48.794;9.182;2023-08-06T02:28:42;15.20;99.90
4314;DHT22;2170;48.794;9.182;2023-08-06T02:31:12;15.20;99.90
4314;DHT22;2170;48.794;9.182;2023-08-06T02:33:46;15.10;99.90
4314;DHT22;2170;48.794;9.182;2023-08-06T02:36:23;15.20;99.90
4314;DHT22;2170;48.794;9.182;2023-08-06T02:38:58;15.10;99.90
4314;DHT22;2170;48.794;9.182;2023-08-06T02:41:31;15.10;99.90
4314;DHT22;2170;48.794;9.182;2023-08-06T02:44:04;15.00;99.90
4314;DHT22;2170;48.794;9.182;2023-08-06T02:46:37;15.00;99.90
4314;DHT22;2170;48.794;9.182;2023-08-06T02:49:24;14.90;99.90
4314;DHT22;2170;48.794;9.182;2023-08-06T02:51:52;14.90;99.90
4314;DHT22;2170;48.794;9.182;2023-08-06T02:54:20;14.90;99.90
4314;DHT22;2170;48.794;9.182;2023-08-06T02:56:52;14.90;99.90
4314;DHT22;2170;48.794;9.182;2023-08-06T02:59:20;14.90;99.90
4314;DHT22;2170;48.794;9.182;2023-08-06T03:01:54;14.80;99.90
4314;DHT22;2170;48.794;9.182;2023-08-06T03:04:21;14.90;99.90
4314;DHT22;2170;48.794;9.182;2023-08-06T03:06:49;14.80;99.90
4314;DHT22;2170;48.794;9.182;2023-08-06T03:09:17;14.80;99.90
4314;DHT22;2170;48.794;9.182;2023-08-06T03:11:45;14.90;99.90
4314;DHT22;2170;48.794;9.182;2023-08-06T03:14:14;14.70;99.90
4314;DHT22;2170;48.794;9.182;2023-08-06T03:16:46;14.70;99.90
4314;DHT22;2170;48.794;9.182;2023-08-06T03:19:14;14.70;99.90
4314;DHT22;2170;48.794;9.182;2023-08-06T03:21:51;14.70;99.90
4314;DHT22;2170;48.794;9.182;2023-08-06T03:24:30;14.70;99.90
4314;DHT22;2170;48.794;9.182;2023-08-06T03:27:02;14.70;99.90
4314;DHT22;2170;48.794;9.182;2023-08-06T03:29:49;14.70;99.90
4314;DHT22;2170;48.794;9.182;2023-08-06T03:35:20;14.80;99.90
4314;DHT22;2170;48.794;9.182;2023-08-06T03:37:54;14.80;99.90
4314;DHT22;2170;48.794;9.182;2023-08-06T03:40:30;14.80;99.90
4314;DHT22;2170;48.794;9.182;2023-08-06T03:43:03;14.80;99.90
4314;DHT22;2170;48.794;9.182;2023-08-06T03:45:35;14.80;99.90
4314;DHT22;2170;48.794;9.182;2023-08-06T03:48:06;14.80;99.90
4314;DHT22;2170;48.794;9.182;2023-08-06T03:50:37;14.80;99.90
4314;DHT22;2170;48.794;9.182;2023-08-06T03:53:05;14.80;99.90
4314;DHT22;2170;48.794;9.182;2023-08-06T03:55:36;14.70;99.90
4314;DHT22;2170;48.794;9.182;2023-08-06T03:58:04;14.70;99.90
4314;DHT22;2170;48.794;9.182;2023-08-06T04:00:32;14.70;99.90
4314;DHT22;2170;48.794;9.182;2023-08-06T04:03:01;14.70;99.90
4314;DHT22;2170;48.794;9.182;2023-08-06T04:05:31;14.70;99.90
4314;DHT22;2170;48.794;9.182;2023-08-06T04:08:02;14.70;99.90
4314;DHT22;2170;48.794;9.182;2023-08-06T04:10:36;14.70;99.90
4314;DHT22;2170;48.794;9.182;2023-08-06T04:13:06;14.80;99.90
4314;DHT22;2170;48.794;9.182;2023-08-06T04:15:34;14.70;99.90
4314;DHT22;2170;48.794;9.182;2023-08-06T04:18:03;14.70;99.90
4314;DHT22;2170;48.794;9.182;2023-08-06T04:20:30;14.70;99.90
4314;DHT22;2170;48.794;9.182;2023-08-06T04:22:58;14.60;99.90
4314;DHT22;2170;48.794;9.182;2023-08-06T04:25:25;14.50;99.90
4314;DHT22;2170;48.794;9.182;2023-08-06T04:27:53;14.50;99.90
4314;DHT22;2170;48.794;9.182;2023-08-06T04:30:20;14.60;99.90
4314;DHT22;2170;48.794;9.182;2023-08-06T04:32:49;14.60;99.90
4314;DHT22;2170;48.794;9.182;2023-08-06T04:35:18;14.60;99.90
4314;DHT22;2170;48.794;9.182;2023-08-06T04:37:46;14.70;99.90
4314;DHT22;2170;48.794;9.182;2023-08-06T04:40:14;14.70;99.90
4314;DHT22;2170;48.794;9.182;2023-08-06T04:42:41;14.70;99.90
4314;DHT22;2170;48.794;9.182;2023-08-06T04:45:09;14.70;99.90
4314;DHT22;2170;48.794;9.182;2023-08-06T04:47:37;14.70;99.90
4314;DHT22;2170;48.794;9.182;2023-08-06T04:50:05;14.70;99.90
4314;DHT22;2170;48.794;9.182;2023-08-06T04:52:34;14.70;99.90
4314;DHT22;2170;48.794;9.182;2023-08-06T04:55:02;14.70;99.90
4314;DHT22;2170;48.794;9.182;2023-08-06T04:57:31;14.70;99.90
4314;DHT22;2170;48.794;9.182;2023-08-06T04:59:59;14.70;99.90
4314;DHT22;2170;48.794;9.182;2023-08-06T05:02:26;14.70;99.90
4314;DHT22;2170;48.794;9.182;2023-08-06T05:04:54;14.70;99.90
4314;DHT22;2170;48.794;9.182;2023-08-06T05:07:22;14.80;99.90
4314;DHT22;2170;48.794;9.182;2023-08-06T05:09:51;14.70;99.90
4314;DHT22;2170;48.794;9.182;2023-08-06T05:12:19;14.70;99.90
4314;DHT22;2170;48.794;9.182;2023-08-06T05:14:47;14.80;99.90
4314;DHT22;2170;48.794;9.182;2023-08-06T05:17:15;14.80;99.90
4314;DHT22;2170;48.794;9.182;2023-08-06T05:19:42;14.80;99.90
4314;DHT22;2170;48.794;9.182;2023-08-06T05:22:09;14.80;99.90
4314;DHT22;2170;48.794;9.182;2023-08-06T05:24:39;14.80;99.90
4314;DHT22;2170;48.794;9.182;2023-08-06T05:27:11;14.90;99.90
4314;DHT22;2170;48.794;9.182;2023-08-06T05:29:41;14.60;99.90
4314;DHT22;2170;48.794;9.182;2023-08-06T05:32:09;14.90;99.90
4314;DHT22;2170;48.794;9.182;2023-08-06T05:34:37;14.90;99.90
4314;DHT22;2170;48.794;9.182;2023-08-06T05:37:05;14.90;99.90
4314;DHT22;2170;48.794;9.182;2023-08-06T05:39:33;15.00;99.90
4314;DHT22;2170;48.794;9.182;2023-08-06T05:42:01;15.00;99.90
4314;DHT22;2170;48.794;9.182;2023-08-06T05:44:31;15.10;99.90
4314;DHT22;2170;48.794;9.182;2023-08-06T05:46:59;15.20;99.90
4314;DHT22;2170;48.794;9.182;2023-08-06T05:49:27;15.30;99.90
4314;DHT22;2170;48.794;9.182;2023-08-06T05:51:55;15.30;99.90
4314;DHT22;2170;48.794;9.182;2023-08-06T05:54:25;15.30;99.90
4314;DHT22;2170;48.794;9.182;2023-08-06T05:57:01;15.30;99.90
4314;DHT22;2170;48.794;9.182;2023-08-06T05:59:30;15.30;99.90
4314;DHT22;2170;48.794;9.182;2023-08-06T06:01:58;15.30;99.90
4314;DHT22;2170;48.794;9.182;2023-08-06T06:04:26;15.40;99.90
4314;DHT22;2170;48.794;9.182;2023-08-06T06:06:53;15.40;99.90
4314;DHT22;2170;48.794;9.182;2023-08-06T06:09:21;15.40;99.90
4314;DHT22;2170;48.794;9.182;2023-08-06T06:11:54;15.40;99.90
4314;DHT22;2170;48.794;9.182;2023-08-06T06:14:22;15.40;99.90
4314;DHT22;2170;48.794;9.182;2023-08-06T06:16:52;15.30;99.90
4314;DHT22;2170;48.794;9.182;2023-08-06T06:19:25;15.30;99.90
4314;DHT22;2170;48.794;9.182;2023-08-06T06:21:53;15.30;99.90
4314;DHT22;2170;48.794;9.182;2023-08-06T06:24:24;15.30;99.90
4314;DHT22;2170;48.794;9.182;2023-08-06T06:26:55;15.30;99.90
4314;DHT22;2170;48.794;9.182;2023-08-06T06:29:31;15.30;99.90
4314;DHT22;2170;48.794;9.182;2023-08-06T06:32:09;15.20;99.90
4314;DHT22;2170;48.794;9.182;2023-08-06T06:34:45;15.30;99.90
4314;DHT22;2170;48.794;9.182;2023-08-06T06:37:20;15.30;99.90
4314;DHT22;2170;48.794;9.182;2023-08-06T06:40:15;15.20;99.90
4314;DHT22;2170;48.794;9.182;2023-08-06T06:42:44;15.30;99.90
4314;DHT22;2170;48.794;9.182;2023-08-06T06:45:29;15.30;99.90
4314;DHT22;2170;48.794;9.182;2023-08-06T06:48:06;15.50;99.90
4314;DHT22;2170;48.794;9.182;2023-08-06T06:50:37;15.50;99.90
4314;DHT22;2170;48.794;9.182;2023-08-06T06:53:11;15.60;99.90
4314;DHT22;2170;48.794;9.182;2023-08-06T06:55:53;15.60;99.90
4314;DHT22;2170;48.794;9.182;2023-08-06T06:58:25;15.70;99.90
4314;DHT22;2170;48.794;9.182;2023-08-06T07:00:58;15.80;99.90
4314;DHT22;2170;48.794;9.182;2023-08-06T07:03:32;15.80;99.90
4314;DHT22;2170;48.794;9.182;2023-08-06T07:06:05;15.80;99.90
4314;DHT22;2170;48.794;9.182;2023-08-06T07:08:38;15.80;99.90
4314;DHT22;2170;48.794;9.182;2023-08-06T07:11:06;15.80;99.90
4314;DHT22;2170;48.794;9.182;2023-08-06T07:13:43;15.50;99.90
4314;DHT22;2170;48.794;9.182;2023-08-06T07:16:22;15.90;99.90
4314;DHT22;2170;48.794;9.182;2023-08-06T07:18:59;15.60;99.90
4314;DHT22;2170;48.794;9.182;2023-08-06T07:21:30;15.50;99.90
4314;DHT22;2170;48.794;9.182;2023-08-06T07:24:01;15.50;99.90
4314;DHT22;2170;48.794;9.182;2023-08-06T07:26:39;15.50;99.90
4314;DHT22;2170;48.794;9.182;2023-08-06T07:29:11;15.30;99.90
4314;DHT22;2170;48.794;9.182;2023-08-06T07:31:52;15.20;99.90
4314;DHT22;2170;48.794;9.182;2023-08-06T07:34:23;15.10;99.90
4314;DHT22;2170;48.794;9.182;2023-08-06T07:36:54;15.10;99.90
4314;DHT22;2170;48.794;9.182;2023-08-06T07:39:25;15.10;99.90
4314;DHT22;2170;48.794;9.182;2023-08-06T07:41:58;15.10;99.90
4314;DHT22;2170;48.794;9.182;2023-08-06T07:44:31;15.10;99.90
4314;DHT22;2170;48.794;9.182;2023-08-06T07:47:05;15.10;99.90
4314;DHT22;2170;48.794;9.182;2023-08-06T07:49:35;15.20;99.90
4314;DHT22;2170;48.794;9.182;2023-08-06T07:52:13;15.20;99.90
4314;DHT22;2170;48.794;9.182;2023-08-06T07:54:55;15.30;99.90
4314;DHT22;2170;48.794;9.182;2023-08-06T07:57:32;15.30;99.90
4314;DHT22;2170;48.794;9.182;2023-08-06T08:00:08;15.40;99.90
4314;DHT22;2170;48.794;9.182;2023-08-06T08:02:56;15.60;99.90
4314;DHT22;2170;48.794;9.182;2023-08-06T08:06:06;15.80;99.90
4314;DHT22;2170;48.794;9.182;2023-08-06T08:08:57;15.70;99.90
4314;DHT22;2170;48.794;9.182;2023-08-06T08:11:34;15.70;99.90
4314;DHT22;2170;48.794;9.182;2023-08-06T08:14:06;15.80;99.90
4314;DHT22;2170;48.794;9.182;2023-08-06T08:16:50;15.80;99.90
4314;DHT22;2170;48.794;9.182;2023-08-06T08:19:49;15.90;99.90
4314;DHT22;2170;48.794;9.182;2023-08-06T08:22:33;16.10;99.90
4314;DHT22;2170;48.794;9.182;2023-08-06T08:25:10;16.20;99.90
4314;DHT22;2170;48.794;9.182;2023-08-06T08:27:52;16.40;99.90
4314;DHT22;2170;48.794;9.182;2023-08-06T08:30:35;16.50;99.90
4314;DHT22;2170;48.794;9.182;2023-08-06T08:33:16;16.60;99.90
4314;DHT22;2170;48.794;9.182;2023-08-06T08:36:47;16.70;99.90
4314;DHT22;2170;48.794;9.182;2023-08-06T08:39:01;16.60;99.90
4314;DHT22;2170;48.794;9.182;2023-08-06T08:41:36;16.90;99.90
4314;DHT22;2170;48.794;9.182;2023-08-06T08:44:14;16.80;99.90
4314;DHT22;2170;48.794;9.182;2023-08-06T08:46:55;16.80;99.90
4314;DHT22;2170;48.794;9.182;2023-08-06T08:49:30;16.60;99.90
4314;DHT22;2170;48.794;9.182;2023-08-06T08:52:05;16.70;99.90
4314;DHT22;2170;48.794;9.182;2023-08-06T08:54:42;16.70;99.90
4314;DHT22;2170;48.794;9.182;2023-08-06T08:57:21;16.70;99.90
4314;DHT22;2170;48.794;9.182;2023-08-06T08:59:55;16.50;99.90
4314;DHT22;2170;48.794;9.182;2023-08-06T09:02:25;16.70;99.90
4314;DHT22;2170;48.794;9.182;2023-08-06T09:05:22;16.30;99.90
4314;DHT22;2170;48.794;9.182;2023-08-06T09:07:55;16.50;99.90
4314;DHT22;2170;48.794;9.182;2023-08-06T09:10:43;16.50;99.90
4314;DHT22;2170;48.794;9.182;2023-08-06T09:13:17;16.60;99.90
4314;DHT22;2170;48.794;9.182;2023-08-06T09:15:52;16.40;99.90
4314;DHT22;2170;48.794;9.182;2023-08-06T09:18:30;16.40;99.90
4314;DHT22;2170;48.794;9.182;2023-08-06T09:21:16;16.40;99.90
4314;DHT22;2170;48.794;9.182;2023-08-06T09:23:58;16.50;99.90
4314;DHT22;2170;48.794;9.182;2023-08-06T09:26:37;16.70;99.90
4314;DHT22;2170;48.794;9.182;2023-08-06T09:29:12;16.80;99.90
4314;DHT22;2170;48.794;9.182;2023-08-06T09:31:44;16.80;99.90
4314;DHT22;2170;48.794;9.182;2023-08-06T09:34:26;16.90;99.90
4314;DHT22;2170;48.794;9.182;2023-08-06T09:36:59;17.30;99.90
4314;DHT22;2170;48.794;9.182;2023-08-06T09:39:31;17.00;99.90
4314;DHT22;2170;48.794;9.182;2023-08-06T09:42:06;17.00;99.90
4314;DHT22;2170;48.794;9.182;2023-08-06T09:44:41;17.00;99.90
4314;DHT22;2170;48.794;9.182;2023-08-06T09:47:11;17.00;99.90
4314;DHT22;2170;48.794;9.182;2023-08-06T09:49:42;17.00;99.90
4314;DHT22;2170;48.794;9.182;2023-08-06T09:52:12;16.70;99.90
4314;DHT22;2170;48.794;9.182;2023-08-06T09:54:44;16.80;99.90
4314;DHT22;2170;48.794;9.182;2023-08-06T09:57:20;16.80;99.90
4314;DHT22;2170;48.794;9.182;2023-08-06T09:59:48;16.90;99.90
4314;DHT22;2170;48.794;9.182;2023-08-06T10:02:15;16.80;99.90
4314;DHT22;2170;48.794;9.182;2023-08-06T10:04:45;16.80;99.90
4314;DHT22;2170;48.794;9.182;2023-08-06T10:07:13;16.60;99.90
4314;DHT22;2170;48.794;9.182;2023-08-06T10:09:46;16.60;99.90
4314;DHT22;2170;48.794;9.182;2023-08-06T10:12:31;16.50;99.90
4314;DHT22;2170;48.794;9.182;2023-08-06T10:15:15;16.60;99.90
4314;DHT22;2170;48.794;9.182;2023-08-06T10:17:50;16.60;99.90
4314;DHT22;2170;48.794;9.182;2023-08-06T10:20:20;16.70;99.90
4314;DHT22;2170;48.794;9.182;2023-08-06T10:23:03;16.70;99.90
4314;DHT22;2170;48.794;9.182;2023-08-06T10:25:32;16.60;99.90
4314;DHT22;2170;48.794;9.182;2023-08-06T10:28:09;16.40;99.90
4314;DHT22;2170;48.794;9.182;2023-08-06T10:30:42;16.20;99.90
4314;DHT22;2170;48.794;9.182;2023-08-06T10:33:10;16.40;99.90
4314;DHT22;2170;48.794;9.182;2023-08-06T10:35:43;16.50;99.90
4314;DHT22;2170;48.794;9.182;2023-08-06T10:38:32;16.60;99.90
4314;DHT22;2170;48.794;9.182;2023-08-06T10:41:03;16.70;99.90
4314;DHT22;2170;48.794;9.182;2023-08-06T10:43:37;16.50;99.90
4314;DHT22;2170;48.794;9.182;2023-08-06T10:46:21;17.00;99.90
4314;DHT22;2170;48.794;9.182;2023-08-06T10:48:51;17.10;99.90
4314;DHT22;2170;48.794;9.182;2023-08-06T10:51:18;16.80;99.90
4314;DHT22;2170;48.794;9.182;2023-08-06T10:53:47;16.90;99.90
4314;DHT22;2170;48.794;9.182;2023-08-06T10:56:15;17.00;99.90
4314;DHT22;2170;48.794;9.182;2023-08-06T10:58:45;17.00;99.90
4314;DHT22;2170;48.794;9.182;2023-08-06T11:01:22;17.00;99.90
4314;DHT22;2170;48.794;9.182;2023-08-06T11:04:03;16.90;99.90
4314;DHT22;2170;48.794;9.182;2023-08-06T11:06:31;16.80;99.90
4314;DHT22;2170;48.794;9.182;2023-08-06T11:09:17;16.60;99.90
4314;DHT22;2170;48.794;9.182;2023-08-06T11:12:05;16.40;99.90
4314;DHT22;2170;48.794;9.182;2023-08-06T11:14:50;16.30;99.90
4314;DHT22;2170;48.794;9.182;2023-08-06T11:17:45;16.30;99.90
4314;DHT22;2170;48.794;9.182;2023-08-06T11:21:05;16.40;99.90
4314;DHT22;2170;48.794;9.182;2023-08-06T11:23:49;16.40;99.90
4314;DHT22;2170;48.794;9.182;2023-08-06T11:26:49;16.30;99.90
4314;DHT22;2170;48.794;9.182;2023-08-06T11:29:31;16.20;99.90
4314;DHT22;2170;48.794;9.182;2023-08-06T11:32:08;16.20;99.90
4314;DHT22;2170;48.794;9.182;2023-08-06T11:34:42;16.20;99.90
4314;DHT22;2170;48.794;9.182;2023-08-06T11:37:21;16.20;99.90
4314;DHT22;2170;48.794;9.182;2023-08-06T11:40:09;16.40;99.90
4314;DHT22;2170;48.794;9.182;2023-08-06T11:42:39;16.30;99.90
4314;DHT22;2170;48.794;9.182;2023-08-06T11:45:15;16.40;99.90
4314;DHT22;2170;48.794;9.182;2023-08-06T11:47:50;16.20;99.90
4314;DHT22;2170;48.794;9.182;2023-08-06T11:50:23;16.10;99.90
4314;DHT22;2170;48.794;9.182;2023-08-06T11:53:00;16.10;99.90
4314;DHT22;2170;48.794;9.182;2023-08-06T11:55:37;15.90;99.90
4314;DHT22;2170;48.794;9.182;2023-08-06T11:58:13;15.80;99.90
4314;DHT22;2170;48.794;9.182;2023-08-06T12:00:47;15.80;99.90
4314;DHT22;2170;48.794;9.182;2023-08-06T12:03:39;15.70;99.90
4314;DHT22;2170;48.794;9.182;2023-08-06T12:09:11;15.50;99.90
4314;DHT22;2170;48.794;9.182;2023-08-06T12:11:50;15.40;99.90
4314;DHT22;2170;48.794;9.182;2023-08-06T12:14:28;15.30;99.90
4314;DHT22;2170;48.794;9.182;2023-08-06T12:17:09;15.20;99.90
4314;DHT22;2170;48.794;9.182;2023-08-06T12:19:37;15.20;99.90
4314;DHT22;2170;48.794;9.182;2023-08-06T12:22:15;15.10;99.90
4314;DHT22;2170;48.794;9.182;2023-08-06T12:25:24;15.40;99.90
4314;DHT22;2170;48.794;9.182;2023-08-06T12:27:59;15.20;99.90
4314;DHT22;2170;48.794;9.182;2023-08-06T12:30:33;15.30;99.90
4314;DHT22;2170;48.794;9.182;2023-08-06T12:33:24;15.30;99.90
4314;DHT22;2170;48.794;9.182;2023-08-06T12:36:09;15.50;99.90
4314;DHT22;2170;48.794;9.182;2023-08-06T12:38:46;15.50;99.90
4314;DHT22;2170;48.794;9.182;2023-08-06T12:41:28;15.70;99.90
4314;DHT22;2170;48.794;9.182;2023-08-06T12:44:01;15.80;99.90
4314;DHT22;2170;48.794;9.182;2023-08-06T12:46:34;15.90;99.90
4314;DHT22;2170;48.794;9.182;2023-08-06T12:49:04;16.10;99.90
4314;DHT22;2170;48.794;9.182;2023-08-06T12:51:37;16.30;99.90
4314;DHT22;2170;48.794;9.182;2023-08-06T12:54:10;16.40;99.90
4314;DHT22;2170;48.794;9.182;2023-08-06T12:56:42;16.80;99.90
4314;DHT22;2170;48.794;9.182;2023-08-06T12:59:09;17.30;99.90
4314;DHT22;2170;48.794;9.182;2023-08-06T13:01:37;17.40;99.90
4314;DHT22;2170;48.794;9.182;2023-08-06T13:04:05;16.80;99.90
4314;DHT22;2170;48.794;9.182;2023-08-06T13:06:36;16.70;99.90
4314;DHT22;2170;48.794;9.182;2023-08-06T13:09:05;16.90;99.90
4314;DHT22;2170;48.794;9.182;2023-08-06T13:11:34;16.60;99.90
4314;DHT22;2170;48.794;9.182;2023-08-06T13:14:09;16.60;99.90
4314;DHT22;2170;48.794;9.182;2023-08-06T13:16:41;16.70;99.90
4314;DHT22;2170;48.794;9.182;2023-08-06T13:19:13;16.60;99.90
4314;DHT22;2170;48.794;9.182;2023-08-06T13:22:01;17.20;99.90
4314;DHT22;2170;48.794;9.182;2023-08-06T13:24:47;17.10;99.90
4314;DHT22;2170;48.794;9.182;2023-08-06T13:27:22;16.80;99.90
4314;DHT22;2170;48.794;9.182;2023-08-06T13:29:54;16.60;99.90
4314;DHT22;2170;48.794;9.182;2023-08-06T13:32:22;16.80;99.90
4314;DHT22;2170;48.794;9.182;2023-08-06T13:34:52;17.10;99.90
4314;DHT22;2170;48.794;9.182;2023-08-06T13:37:22;17.30;99.90
4314;DHT22;2170;48.794;9.182;2023-08-06T13:39:55;17.10;99.90
4314;DHT22;2170;48.794;9.182;2023-08-06T13:42:26;16.90;99.90
4314;DHT22;2170;48.794;9.182;2023-08-06T13:45:03;16.90;99.90
4314;DHT22;2170;48.794;9.182;2023-08-06T13:47:45;16.90;99.90
4314;DHT22;2170;48.794;9.182;2023-08-06T13:50:20;16.80;99.90
4314;DHT22;2170;48.794;9.182;2023-08-06T13:52:55;16.70;99.90
4314;DHT22;2170;48.794;9.182;2023-08-06T13:55:23;16.80;99.90
4314;DHT22;2170;48.794;9.182;2023-08-06T13:57:56;16.80;99.90
4314;DHT22;2170;48.794;9.182;2023-08-06T14:00:33;16.80;99.90
4314;DHT22;2170;48.794;9.182;2023-08-06T14:03:35;16.90;99.90
4314;DHT22;2170;48.794;9.182;2023-08-06T14:09:40;16.70;99.90
4314;DHT22;2170;48.794;9.182;2023-08-06T14:12:31;16.60;99.90
4314;DHT22;2170;48.794;9.182;2023-08-06T14:18:03;16.80;99.90
4314;DHT22;2170;48.794;9.182;2023-08-06T14:20:37;16.60;99.90
4314;DHT22;2170;48.794;9.182;2023-08-06T14:23:08;16.70;99.90
4314;DHT22;2170;48.794;9.182;2023-08-06T14:25:39;16.80;99.90
4314;DHT22;2170;48.794;9.182;2023-08-06T14:28:19;17.10;99.90
4314;DHT22;2170;48.794;9.182;2023-08-06T14:30:58;17.20;99.90
4314;DHT22;2170;48.794;9.182;2023-08-06T14:33:46;17.20;99.90
4314;DHT22;2170;48.794;9.182;2023-08-06T14:36:19;17.10;99.90
4314;DHT22;2170;48.794;9.182;2023-08-06T14:38:53;17.10;99.90
4314;DHT22;2170;48.794;9.182;2023-08-06T14:41:31;17.10;99.90
4314;DHT22;2170;48.794;9.182;2023-08-06T14:44:07;17.10;99.90
4314;DHT22;2170;48.794;9.182;2023-08-06T14:46:49;17.20;99.90
4314;DHT22;2170;48.794;9.182;2023-08-06T14:49:40;17.20;99.90
4314;DHT22;2170;48.794;9.182;2023-08-06T14:52:23;17.00;99.90
4314;DHT22;2170;48.794;9.182;2023-08-06T14:54:54;17.00;99.90
4314;DHT22;2170;48.794;9.182;2023-08-06T15:00:40;16.60;99.90
4314;DHT22;2170;48.794;9.182;2023-08-06T15:03:32;16.20;99.90
4314;DHT22;2170;48.794;9.182;2023-08-06T15:06:07;15.80;99.90
4314;DHT22;2170;48.794;9.182;2023-08-06T15:08:54;15.80;99.90
4314;DHT22;2170;48.794;9.182;2023-08-06T15:11:48;15.60;99.90
4314;DHT22;2170;48.794;9.182;2023-08-06T15:14:46;15.60;99.90
4314;DHT22;2170;48.794;9.182;2023-08-06T15:17:19;15.70;99.90
4314;DHT22;2170;48.794;9.182;2023-08-06T15:20:05;15.90;99.90
4314;DHT22;2170;48.794;9.182;2023-08-06T15:22:47;15.90;99.90
4314;DHT22;2170;48.794;9.182;2023-08-06T15:25:34;16.10;99.90
4314;DHT22;2170;48.794;9.182;2023-08-06T15:28:48;16.10;99.90
4314;DHT22;2170;48.794;9.182;2023-08-06T15:31:38;16.30;99.90
4314;DHT22;2170;48.794;9.182;2023-08-06T15:34:30;16.50;99.90
4314;DHT22;2170;48.794;9.182;2023-08-06T15:37:00;16.40;99.90
4314;DHT22;2170;48.794;9.182;2023-08-06T15:39:46;16.40;99.90
4314;DHT22;2170;48.794;9.182;2023-08-06T15:42:26;16.60;99.90
4314;DHT22;2170;48.794;9.182;2023-08-06T15:45:00;16.80;99.90
4314;DHT22;2170;48.794;9.182;2023-08-06T15:47:33;16.90;99.90
4314;DHT22;2170;48.794;9.182;2023-08-06T15:50:09;17.10;99.90
4314;DHT22;2170;48.794;9.182;2023-08-06T15:52:37;17.10;99.90
4314;DHT22;2170;48.794;9.182;2023-08-06T15:55:26;17.00;99.90
4314;DHT22;2170;48.794;9.182;2023-08-06T15:57:57;17.30;99.90
4314;DHT22;2170;48.794;9.182;2023-08-06T16:00:25;17.40;99.90
4314;DHT22;2170;48.794;9.182;2023-08-06T16:02:56;17.80;99.90
4314;DHT22;2170;48.794;9.182;2023-08-06T16:05:24;17.90;99.90
4314;DHT22;2170;48.794;9.182;2023-08-06T16:07:52;17.60;99.90
4314;DHT22;2170;48.794;9.182;2023-08-06T16:10:21;17.30;99.90
4314;DHT22;2170;48.794;9.182;2023-08-06T16:12:49;17.30;99.90
4314;DHT22;2170;48.794;9.182;2023-08-06T16:15:20;17.00;99.90
4314;DHT22;2170;48.794;9.182;2023-08-06T16:17:55;16.90;99.90
4314;DHT22;2170;48.794;9.182;2023-08-06T16:20:25;16.80;99.90
4314;DHT22;2170;48.794;9.182;2023-08-06T16:22:57;16.90;99.90
4314;DHT22;2170;48.794;9.182;2023-08-06T16:25:26;17.00;99.90
4314;DHT22;2170;48.794;9.182;2023-08-06T16:27:57;16.90;99.90
4314;DHT22;2170;48.794;9.182;2023-08-06T16:30:29;16.80;99.90
4314;DHT22;2170;48.794;9.182;2023-08-06T16:33:00;16.70;99.90
4314;DHT22;2170;48.794;9.182;2023-08-06T16:35:36;16.80;99.90
4314;DHT22;2170;48.794;9.182;2023-08-06T16:38:12;16.40;99.90
4314;DHT22;2170;48.794;9.182;2023-08-06T16:40:51;16.20;99.90
4314;DHT22;2170;48.794;9.182;2023-08-06T16:43:20;16.10;99.90
4314;DHT22;2170;48.794;9.182;2023-08-06T16:45:48;16.10;99.90
4314;DHT22;2170;48.794;9.182;2023-08-06T16:48:32;16.10;99.90
4314;DHT22;2170;48.794;9.182;2023-08-06T16:51:08;15.90;99.90
4314;DHT22;2170;48.794;9.182;2023-08-06T16:53:52;15.70;99.90
4314;DHT22;2170;48.794;9.182;2023-08-06T16:56:25;15.40;99.90
4314;DHT22;2170;48.794;9.182;2023-08-06T16:58:54;15.30;99.90
4314;DHT22;2170;48.794;9.182;2023-08-06T17:01:29;15.10;99.90
4314;DHT22;2170;48.794;9.182;2023-08-06T17:04:02;15.00;99.90
4314;DHT22;2170;48.794;9.182;2023-08-06T17:06:37;14.90;99.90